sensor_id;sensor_type;location;lat;lon;timestamp;P1;durP1;ratioP1;P2;durP2;ratioP2
12780;SDS011;6454;43.304;24.344;2023-04-08T00:00:43;12.37;;;10.53;;
12780;SDS011;6454;43.304;24.344;2023-04-08T00:03:10;12.40;;;10.80;;
12780;SDS011;6454;43.304;24.344;2023-04-08T00:05:37;12.90;;;11.50;;
12780;SDS011;6454;43.304;24.344;2023-04-08T00:08:06;12.70;;;11.40;;
12780;SDS011;6454;43.304;24.344;2023-04-08T00:10:32;12.37;;;10.73;;
12780;SDS011;6454;43.304;24.344;2023-04-08T00:12:59;11.83;;;10.63;;
12780;SDS011;6454;43.304;24.344;2023-04-08T00:15:26;12.53;;;11.23;;
12780;SDS011;6454;43.304;24.344;2023-04-08T00:17:53;15.00;;;11.50;;
12780;SDS011;6454;43.304;24.344;2023-04-08T00:20:21;13.33;;;11.83;;
12780;SDS011;6454;43.304;24.344;2023-04-08T00:22:48;12.23;;;10.57;;
12780;SDS011;6454;43.304;24.344;2023-04-08T00:25:16;12.17;;;10.93;;
12780;SDS011;6454;43.304;24.344;2023-04-08T00:27:58;13.52;;;11.65;;
12780;SDS011;6454;43.304;24.344;2023-04-08T00:30:25;12.43;;;11.13;;
12780;SDS011;6454;43.304;24.344;2023-04-08T00:32:52;11.77;;;10.57;;
12780;SDS011;6454;43.304;24.344;2023-04-08T00:35:19;12.90;;;11.60;;
12780;SDS011;6454;43.304;24.344;2023-04-08T00:37:46;12.93;;;11.37;;
12780;SDS011;6454;43.304;24.344;2023-04-08T00:40:13;12.17;;;10.93;;
12780;SDS011;6454;43.304;24.344;2023-04-08T00:42:42;12.53;;;11.23;;
12780;SDS011;6454;43.304;24.344;2023-04-08T00:45:09;13.00;;;11.60;;
12780;SDS011;6454;43.304;24.344;2023-04-08T00:47:36;11.23;;;10.03;;
12780;SDS011;6454;43.304;24.344;2023-04-08T00:50:04;13.00;;;11.47;;
12780;SDS011;6454;43.304;24.344;2023-04-08T00:52:33;13.97;;;12.07;;
12780;SDS011;6454;43.304;24.344;2023-04-08T00:55:00;15.10;;;11.43;;
12780;SDS011;6454;43.304;24.344;2023-04-08T00:57:28;14.30;;;11.60;;
12780;SDS011;6454;43.304;24.344;2023-04-08T00:59:55;11.30;;;10.10;;
12780;SDS011;6454;43.304;24.344;2023-04-08T01:05:10;12.33;;;11.03;;
12780;SDS011;6454;43.304;24.344;2023-04-08T01:07:42;12.63;;;11.07;;
12780;SDS011;6454;43.304;24.344;2023-04-08T01:10:14;13.83;;;11.93;;
12780;SDS011;6454;43.304;24.344;2023-04-08T01:12:47;16.20;;;11.20;;
12780;SDS011;6454;43.304;24.344;2023-04-08T01:15:17;13.67;;;12.13;;
12780;SDS011;6454;43.304;24.344;2023-04-08T01:17:44;13.90;;;11.83;;
12780;SDS011;6454;43.304;24.344;2023-04-08T01:20:12;14.03;;;12.53;;
12780;SDS011;6454;43.304;24.344;2023-04-08T01:22:47;15.23;;;13.33;;
12780;SDS011;6454;43.304;24.344;2023-04-08T01:25:25;15.73;;;13.40;;
12780;SDS011;6454;43.304;24.344;2023-04-08T01:27:57;19.43;;;13.03;;
12780;SDS011;6454;43.304;24.344;2023-04-08T01:30:27;16.67;;;14.03;;
12780;SDS011;6454;43.304;24.344;2023-04-08T01:32:55;15.80;;;13.33;;
12780;SDS011;6454;43.304;24.344;2023-04-08T01:35:25;15.43;;;13.07;;
12780;SDS011;6454;43.304;24.344;2023-04-08T01:37:52;14.43;;;12.90;;
12780;SDS011;6454;43.304;24.344;2023-04-08T01:40:20;16.23;;;13.10;;
12780;SDS011;6454;43.304;24.344;2023-04-08T01:42:47;13.70;;;12.10;;
12780;SDS011;6454;43.304;24.344;2023-04-08T01:45:17;14.07;;;11.70;;
12780;SDS011;6454;43.304;24.344;2023-04-08T01:47:44;13.47;;;11.53;;
12780;SDS011;6454;43.304;24.344;2023-04-08T01:50:12;12.53;;;11.23;;
12780;SDS011;6454;43.304;24.344;2023-04-08T01:52:40;13.33;;;11.93;;
12780;SDS011;6454;43.304;24.344;2023-04-08T01:55:10;15.13;;;12.50;;
12780;SDS011;6454;43.304;24.344;2023-04-08T01:57:37;13.67;;;12.30;;
12780;SDS011;6454;43.304;24.344;2023-04-08T02:00:08;13.73;;;12.40;;
12780;SDS011;6454;43.304;24.344;2023-04-08T02:02:38;15.70;;;13.77;;
12780;SDS011;6454;43.304;24.344;2023-04-08T02:05:07;14.37;;;12.47;;
12780;SDS011;6454;43.304;24.344;2023-04-08T02:07:34;16.97;;;14.00;;
12780;SDS011;6454;43.304;24.344;2023-04-08T02:10:01;17.00;;;13.83;;
12780;SDS011;6454;43.304;24.344;2023-04-08T02:12:28;15.17;;;13.57;;
12780;SDS011;6454;43.304;24.344;2023-04-08T02:14:56;16.87;;;13.67;;
12780;SDS011;6454;43.304;24.344;2023-04-08T02:17:24;16.67;;;14.27;;
12780;SDS011;6454;43.304;24.344;2023-04-08T02:20:00;16.33;;;14.37;;
12780;SDS011;6454;43.304;24.344;2023-04-08T02:22:35;15.73;;;14.03;;
12780;SDS011;6454;43.304;24.344;2023-04-08T02:25:08;16.90;;;14.23;;
12780;SDS011;6454;43.304;24.344;2023-04-08T02:27:38;16.20;;;13.77;;
12780;SDS011;6454;43.304;24.344;2023-04-08T02:30:06;17.47;;;14.93;;
12780;SDS011;6454;43.304;24.344;2023-04-08T02:32:36;16.27;;;14.53;;
12780;SDS011;6454;43.304;24.344;2023-04-08T02:35:05;18.33;;;14.83;;
12780;SDS011;6454;43.304;24.344;2023-04-08T02:37:33;16.37;;;14.60;;
12780;SDS011;6454;43.304;24.344;2023-04-08T02:40:00;18.33;;;15.33;;
12780;SDS011;6454;43.304;24.344;2023-04-08T02:42:27;21.93;;;16.60;;
12780;SDS011;6454;43.304;24.344;2023-04-08T02:44:54;21.10;;;16.87;;
12780;SDS011;6454;43.304;24.344;2023-04-08T02:47:22;23.77;;;19.40;;
12780;SDS011;6454;43.304;24.344;2023-04-08T02:49:49;33.43;;;21.90;;
12780;SDS011;6454;43.304;24.344;2023-04-08T02:52:19;23.87;;;18.30;;
12780;SDS011;6454;43.304;24.344;2023-04-08T02:54:46;20.13;;;15.27;;
12780;SDS011;6454;43.304;24.344;2023-04-08T02:57:13;18.50;;;16.50;;
12780;SDS011;6454;43.304;24.344;2023-04-08T02:59:41;21.80;;;17.73;;
12780;SDS011;6454;43.304;24.344;2023-04-08T03:02:07;19.60;;;17.17;;
12780;SDS011;6454;43.304;24.344;2023-04-08T03:04:34;19.50;;;16.27;;
12780;SDS011;6454;43.304;24.344;2023-04-08T03:07:01;19.53;;;16.50;;
12780;SDS011;6454;43.304;24.344;2023-04-08T03:09:29;22.77;;;16.20;;
12780;SDS011;6454;43.304;24.344;2023-04-08T03:11:56;18.80;;;15.23;;
12780;SDS011;6454;43.304;24.344;2023-04-08T03:14:23;20.03;;;15.87;;
12780;SDS011;6454;43.304;24.344;2023-04-08T03:16:49;18.00;;;15.13;;
12780;SDS011;6454;43.304;24.344;2023-04-08T03:19:16;17.67;;;15.63;;
12780;SDS011;6454;43.304;24.344;2023-04-08T03:21:43;21.33;;;16.97;;
12780;SDS011;6454;43.304;24.344;2023-04-08T03:24:10;24.07;;;19.07;;
12780;SDS011;6454;43.304;24.344;2023-04-08T03:26:38;20.60;;;16.53;;
12780;SDS011;6454;43.304;24.344;2023-04-08T03:29:05;18.60;;;15.13;;
12780;SDS011;6454;43.304;24.344;2023-04-08T03:31:32;17.27;;;15.00;;
12780;SDS011;6454;43.304;24.344;2023-04-08T03:33:59;16.73;;;14.70;;
12780;SDS011;6454;43.304;24.344;2023-04-08T03:36:25;18.87;;;15.60;;
12780;SDS011;6454;43.304;24.344;2023-04-08T03:38:52;16.87;;;15.10;;
12780;SDS011;6454;43.304;24.344;2023-04-08T03:41:19;18.03;;;14.90;;
12780;SDS011;6454;43.304;24.344;2023-04-08T03:43:47;17.43;;;13.63;;
12780;SDS011;6454;43.304;24.344;2023-04-08T03:46:14;16.37;;;13.97;;
12780;SDS011;6454;43.304;24.344;2023-04-08T03:48:41;15.23;;;13.63;;
12780;SDS011;6454;43.304;24.344;2023-04-08T03:51:08;16.57;;;14.77;;
12780;SDS011;6454;43.304;24.344;2023-04-08T03:53:35;18.70;;;15.07;;
12780;SDS011;6454;43.304;24.344;2023-04-08T03:56:01;15.80;;;14.10;;
12780;SDS011;6454;43.304;24.344;2023-04-08T03:58:28;15.93;;;14.30;;
12780;SDS011;6454;43.304;24.344;2023-04-08T04:00:57;17.17;;;14.37;;
12780;SDS011;6454;43.304;24.344;2023-04-08T04:03:24;15.47;;;13.30;;
12780;SDS011;6454;43.304;24.344;2023-04-08T04:05:51;15.97;;;14.27;;
12780;SDS011;6454;43.304;24.344;2023-04-08T04:08:18;16.10;;;14.33;;
12780;SDS011;6454;43.304;24.344;2023-04-08T04:10:44;15.77;;;14.07;;
12780;SDS011;6454;43.304;24.344;2023-04-08T04:13:11;17.07;;;15.17;;
12780;SDS011;6454;43.304;24.344;2023-04-08T04:15:38;16.30;;;14.07;;
12780;SDS011;6454;43.304;24.344;2023-04-08T04:18:07;18.07;;;14.27;;
12780;SDS011;6454;43.304;24.344;2023-04-08T04:20:34;15.80;;;13.87;;
12780;SDS011;6454;43.304;24.344;2023-04-08T04:23:02;16.10;;;13.47;;
12780;SDS011;6454;43.304;24.344;2023-04-08T04:25:29;17.33;;;13.63;;
12780;SDS011;6454;43.304;24.344;2023-04-08T04:27:56;14.97;;;13.20;;
12780;SDS011;6454;43.304;24.344;2023-04-08T04:30:23;15.07;;;13.50;;
12780;SDS011;6454;43.304;24.344;2023-04-08T04:32:50;15.73;;;13.97;;
12780;SDS011;6454;43.304;24.344;2023-04-08T04:35:18;15.93;;;13.77;;
12780;SDS011;6454;43.304;24.344;2023-04-08T04:37:45;16.13;;;13.73;;
12780;SDS011;6454;43.304;24.344;2023-04-08T04:40:14;19.30;;;16.67;;
12780;SDS011;6454;43.304;24.344;2023-04-08T04:42:41;21.80;;;17.63;;
12780;SDS011;6454;43.304;24.344;2023-04-08T04:45:08;16.73;;;14.90;;
12780;SDS011;6454;43.304;24.344;2023-04-08T04:47:36;16.33;;;14.20;;
12780;SDS011;6454;43.304;24.344;2023-04-08T04:50:03;15.60;;;14.00;;
12780;SDS011;6454;43.304;24.344;2023-04-08T04:52:33;15.97;;;14.13;;
12780;SDS011;6454;43.304;24.344;2023-04-08T04:55:01;15.53;;;13.47;;
12780;SDS011;6454;43.304;24.344;2023-04-08T04:57:28;16.07;;;14.37;;
12780;SDS011;6454;43.304;24.344;2023-04-08T04:59:55;16.47;;;14.67;;
12780;SDS011;6454;43.304;24.344;2023-04-08T05:02:21;17.90;;;16.00;;
12780;SDS011;6454;43.304;24.344;2023-04-08T05:04:48;16.37;;;14.13;;
12780;SDS011;6454;43.304;24.344;2023-04-08T05:07:17;17.70;;;15.40;;
12780;SDS011;6454;43.304;24.344;2023-04-08T05:09:46;21.63;;;17.10;;
12780;SDS011;6454;43.304;24.344;2023-04-08T05:12:14;21.37;;;17.90;;
12780;SDS011;6454;43.304;24.344;2023-04-08T05:14:41;23.77;;;18.47;;
12780;SDS011;6454;43.304;24.344;2023-04-08T05:17:08;26.67;;;19.67;;
12780;SDS011;6454;43.304;24.344;2023-04-08T05:19:35;28.73;;;20.90;;
12780;SDS011;6454;43.304;24.344;2023-04-08T05:22:01;23.87;;;20.77;;
12780;SDS011;6454;43.304;24.344;2023-04-08T05:24:28;26.90;;;22.23;;
12780;SDS011;6454;43.304;24.344;2023-04-08T05:26:56;32.97;;;26.20;;
12780;SDS011;6454;43.304;24.344;2023-04-08T05:29:23;37.67;;;25.13;;
12780;SDS011;6454;43.304;24.344;2023-04-08T05:31:50;33.37;;;25.37;;
12780;SDS011;6454;43.304;24.344;2023-04-08T05:34:17;33.87;;;26.83;;
12780;SDS011;6454;43.304;24.344;2023-04-08T05:36:46;30.40;;;23.73;;
12780;SDS011;6454;43.304;24.344;2023-04-08T05:39:16;24.50;;;21.33;;
12780;SDS011;6454;43.304;24.344;2023-04-08T05:41:42;24.27;;;19.20;;
12780;SDS011;6454;43.304;24.344;2023-04-08T05:44:11;26.30;;;19.53;;
12780;SDS011;6454;43.304;24.344;2023-04-08T05:46:38;20.17;;;17.63;;
12780;SDS011;6454;43.304;24.344;2023-04-08T05:49:05;25.10;;;19.57;;
12780;SDS011;6454;43.304;24.344;2023-04-08T05:51:32;21.20;;;18.17;;
12780;SDS011;6454;43.304;24.344;2023-04-08T05:53:59;20.25;;;17.80;;
12780;SDS011;6454;43.304;24.344;2023-04-08T05:56:25;21.13;;;16.92;;
12780;SDS011;6454;43.304;24.344;2023-04-08T05:58:52;19.35;;;16.83;;
12780;SDS011;6454;43.304;24.344;2023-04-08T06:01:20;22.83;;;16.60;;
12780;SDS011;6454;43.304;24.344;2023-04-08T06:03:47;18.63;;;16.08;;
12780;SDS011;6454;43.304;24.344;2023-04-08T06:06:14;18.55;;;16.55;;
12780;SDS011;6454;43.304;24.344;2023-04-08T06:08:41;18.42;;;16.17;;
12780;SDS011;6454;43.304;24.344;2023-04-08T06:11:08;20.33;;;16.70;;
12780;SDS011;6454;43.304;24.344;2023-04-08T06:13:34;18.27;;;16.05;;
12780;SDS011;6454;43.304;24.344;2023-04-08T06:16:08;20.88;;;16.73;;
12780;SDS011;6454;43.304;24.344;2023-04-08T06:18:37;20.60;;;15.90;;
12780;SDS011;6454;43.304;24.344;2023-04-08T06:21:04;20.30;;;15.38;;
12780;SDS011;6454;43.304;24.344;2023-04-08T06:23:31;17.67;;;14.90;;
12780;SDS011;6454;43.304;24.344;2023-04-08T06:25:58;17.23;;;15.30;;
12780;SDS011;6454;43.304;24.344;2023-04-08T06:28:25;17.52;;;15.70;;
12780;SDS011;6454;43.304;24.344;2023-04-08T06:30:54;17.13;;;15.35;;
12780;SDS011;6454;43.304;24.344;2023-04-08T06:33:21;22.73;;;15.10;;
12780;SDS011;6454;43.304;24.344;2023-04-08T06:35:49;18.83;;;16.05;;
12780;SDS011;6454;43.304;24.344;2023-04-08T06:38:16;17.52;;;15.73;;
12780;SDS011;6454;43.304;24.344;2023-04-08T06:40:43;21.58;;;16.10;;
12780;SDS011;6454;43.304;24.344;2023-04-08T06:43:09;19.40;;;15.27;;
12780;SDS011;6454;43.304;24.344;2023-04-08T06:45:36;20.90;;;16.30;;
12780;SDS011;6454;43.304;24.344;2023-04-08T06:48:03;22.58;;;15.63;;
12780;SDS011;6454;43.304;24.344;2023-04-08T06:50:30;18.05;;;16.15;;
12780;SDS011;6454;43.304;24.344;2023-04-08T06:52:58;20.50;;;16.77;;
12780;SDS011;6454;43.304;24.344;2023-04-08T06:55:25;18.60;;;16.23;;
12780;SDS011;6454;43.304;24.344;2023-04-08T06:57:52;20.27;;;15.85;;
12780;SDS011;6454;43.304;24.344;2023-04-08T07:00:19;20.67;;;16.27;;
12780;SDS011;6454;43.304;24.344;2023-04-08T07:02:46;21.80;;;17.23;;
12780;SDS011;6454;43.304;24.344;2023-04-08T07:05:13;20.58;;;16.88;;
12780;SDS011;6454;43.304;24.344;2023-04-08T07:07:40;20.48;;;17.02;;
12780;SDS011;6454;43.304;24.344;2023-04-08T07:10:08;19.70;;;16.38;;
12780;SDS011;6454;43.304;24.344;2023-04-08T07:12:35;20.33;;;16.02;;
12780;SDS011;6454;43.304;24.344;2023-04-08T07:15:02;19.20;;;16.35;;
12780;SDS011;6454;43.304;24.344;2023-04-08T07:17:30;22.23;;;16.35;;
12780;SDS011;6454;43.304;24.344;2023-04-08T07:19:58;18.63;;;14.80;;
12780;SDS011;6454;43.304;24.344;2023-04-08T07:22:24;17.63;;;15.73;;
12780;SDS011;6454;43.304;24.344;2023-04-08T07:24:51;19.35;;;14.38;;
12780;SDS011;6454;43.304;24.344;2023-04-08T07:27:19;14.43;;;12.88;;
12780;SDS011;6454;43.304;24.344;2023-04-08T07:29:51;14.90;;;13.40;;
12780;SDS011;6454;43.304;24.344;2023-04-08T07:32:18;18.63;;;14.00;;
12780;SDS011;6454;43.304;24.344;2023-04-08T07:34:45;17.90;;;14.02;;
12780;SDS011;6454;43.304;24.344;2023-04-08T07:37:11;14.88;;;13.35;;
12780;SDS011;6454;43.304;24.344;2023-04-08T07:39:38;15.82;;;13.25;;
12780;SDS011;6454;43.304;24.344;2023-04-08T07:42:05;16.02;;;12.98;;
12780;SDS011;6454;43.304;24.344;2023-04-08T07:44:33;14.63;;;12.00;;
12780;SDS011;6454;43.304;24.344;2023-04-08T07:47:00;15.95;;;11.18;;
12780;SDS011;6454;43.304;24.344;2023-04-08T07:49:27;13.02;;;10.07;;
12780;SDS011;6454;43.304;24.344;2023-04-08T07:51:54;10.07;;;9.18;;
12780;SDS011;6454;43.304;24.344;2023-04-08T07:54:21;12.30;;;9.52;;
12780;SDS011;6454;43.304;24.344;2023-04-08T07:56:48;11.13;;;9.73;;
12780;SDS011;6454;43.304;24.344;2023-04-08T07:59:15;9.35;;;8.45;;
12780;SDS011;6454;43.304;24.344;2023-04-08T08:01:43;10.55;;;9.35;;
12780;SDS011;6454;43.304;24.344;2023-04-08T08:04:11;10.05;;;9.15;;
12780;SDS011;6454;43.304;24.344;2023-04-08T08:06:37;14.82;;;10.02;;
12780;SDS011;6454;43.304;24.344;2023-04-08T08:09:04;9.82;;;8.85;;
12780;SDS011;6454;43.304;24.344;2023-04-08T08:11:31;9.90;;;9.00;;
12780;SDS011;6454;43.304;24.344;2023-04-08T08:13:58;10.93;;;9.07;;
12780;SDS011;6454;43.304;24.344;2023-04-08T08:16:26;10.45;;;9.10;;
12780;SDS011;6454;43.304;24.344;2023-04-08T08:18:55;10.75;;;9.65;;
12780;SDS011;6454;43.304;24.344;2023-04-08T08:21:22;11.27;;;9.38;;
12780;SDS011;6454;43.304;24.344;2023-04-08T08:23:50;11.23;;;10.13;;
12780;SDS011;6454;43.304;24.344;2023-04-08T08:26:17;12.38;;;9.20;;
12780;SDS011;6454;43.304;24.344;2023-04-08T08:28:45;9.85;;;8.93;;
12780;SDS011;6454;43.304;24.344;2023-04-08T08:31:12;10.73;;;9.63;;
12780;SDS011;6454;43.304;24.344;2023-04-08T08:33:38;10.30;;;9.20;;
12780;SDS011;6454;43.304;24.344;2023-04-08T08:36:07;13.15;;;8.80;;
12780;SDS011;6454;43.304;24.344;2023-04-08T08:38:34;13.38;;;10.90;;
12780;SDS011;6454;43.304;24.344;2023-04-08T08:41:01;11.57;;;10.07;;
12780;SDS011;6454;43.304;24.344;2023-04-08T08:43:28;19.50;;;10.70;;
12780;SDS011;6454;43.304;24.344;2023-04-08T08:45:57;15.38;;;10.00;;
12780;SDS011;6454;43.304;24.344;2023-04-08T08:48:24;9.50;;;8.60;;
12780;SDS011;6454;43.304;24.344;2023-04-08T08:50:51;9.23;;;8.00;;
12780;SDS011;6454;43.304;24.344;2023-04-08T08:53:20;9.32;;;8.32;;
12780;SDS011;6454;43.304;24.344;2023-04-08T08:55:49;10.77;;;8.30;;
12780;SDS011;6454;43.304;24.344;2023-04-08T08:58:16;9.07;;;7.97;;
12780;SDS011;6454;43.304;24.344;2023-04-08T09:00:43;15.23;;;9.00;;
12780;SDS011;6454;43.304;24.344;2023-04-08T09:03:17;9.00;;;8.10;;
12780;SDS011;6454;43.304;24.344;2023-04-08T09:05:48;9.18;;;8.27;;
12780;SDS011;6454;43.304;24.344;2023-04-08T09:08:27;11.60;;;8.00;;
12780;SDS011;6454;43.304;24.344;2023-04-08T09:11:09;10.52;;;8.65;;
12780;SDS011;6454;43.304;24.344;2023-04-08T09:13:36;9.20;;;8.18;;
12780;SDS011;6454;43.304;24.344;2023-04-08T09:16:04;16.98;;;9.07;;
12780;SDS011;6454;43.304;24.344;2023-04-08T09:18:33;8.60;;;7.80;;
12780;SDS011;6454;43.304;24.344;2023-04-08T09:21:00;8.07;;;7.28;;
12780;SDS011;6454;43.304;24.344;2023-04-08T09:23:39;8.38;;;7.43;;
12780;SDS011;6454;43.304;24.344;2023-04-08T09:26:08;7.90;;;7.10;;
12780;SDS011;6454;43.304;24.344;2023-04-08T09:28:36;8.65;;;7.50;;
12780;SDS011;6454;43.304;24.344;2023-04-08T09:31:09;9.07;;;6.57;;
12780;SDS011;6454;43.304;24.344;2023-04-08T09:33:44;7.38;;;6.63;;
12780;SDS011;6454;43.304;24.344;2023-04-08T09:36:12;8.40;;;7.15;;
12780;SDS011;6454;43.304;24.344;2023-04-08T09:38:41;11.55;;;7.30;;
12780;SDS011;6454;43.304;24.344;2023-04-08T09:41:07;8.10;;;6.60;;
12780;SDS011;6454;43.304;24.344;2023-04-08T09:43:40;6.93;;;6.32;;
12780;SDS011;6454;43.304;24.344;2023-04-08T09:46:13;7.10;;;6.40;;
12780;SDS011;6454;43.304;24.344;2023-04-08T09:48:45;16.42;;;7.32;;
12780;SDS011;6454;43.304;24.344;2023-04-08T09:51:21;11.90;;;7.82;;
12780;SDS011;6454;43.304;24.344;2023-04-08T09:53:54;7.07;;;5.80;;
12780;SDS011;6454;43.304;24.344;2023-04-08T09:56:25;7.47;;;6.82;;
12780;SDS011;6454;43.304;24.344;2023-04-08T09:58:58;7.90;;;6.68;;
12780;SDS011;6454;43.304;24.344;2023-04-08T10:01:30;7.05;;;6.35;;
12780;SDS011;6454;43.304;24.344;2023-04-08T10:04:03;7.43;;;6.32;;
12780;SDS011;6454;43.304;24.344;2023-04-08T10:06:33;9.57;;;8.20;;
12780;SDS011;6454;43.304;24.344;2023-04-08T10:09:02;6.45;;;5.88;;
12780;SDS011;6454;43.304;24.344;2023-04-08T10:11:30;12.43;;;7.35;;
12780;SDS011;6454;43.304;24.344;2023-04-08T10:13:57;7.70;;;6.85;;
12780;SDS011;6454;43.304;24.344;2023-04-08T10:16:24;6.80;;;6.07;;
12780;SDS011;6454;43.304;24.344;2023-04-08T10:18:52;8.32;;;6.03;;
12780;SDS011;6454;43.304;24.344;2023-04-08T10:21:30;7.32;;;6.63;;
12780;SDS011;6454;43.304;24.344;2023-04-08T10:24:13;8.55;;;6.65;;
12780;SDS011;6454;43.304;24.344;2023-04-08T10:26:41;7.25;;;6.55;;
12780;SDS011;6454;43.304;24.344;2023-04-08T10:34:55;8.88;;;7.82;;
12780;SDS011;6454;43.304;24.344;2023-04-08T10:37:22;7.97;;;6.90;;
12780;SDS011;6454;43.304;24.344;2023-04-08T10:39:50;14.18;;;6.80;;
12780;SDS011;6454;43.304;24.344;2023-04-08T10:42:25;12.55;;;6.63;;
12780;SDS011;6454;43.304;24.344;2023-04-08T10:44:53;9.95;;;6.70;;
12780;SDS011;6454;43.304;24.344;2023-04-08T10:47:24;6.85;;;5.72;;
12780;SDS011;6454;43.304;24.344;2023-04-08T10:49:52;15.20;;;9.32;;
12780;SDS011;6454;43.304;24.344;2023-04-08T10:52:19;16.50;;;13.07;;
12780;SDS011;6454;43.304;24.344;2023-04-08T10:54:47;8.15;;;6.32;;
12780;SDS011;6454;43.304;24.344;2023-04-08T10:57:15;7.55;;;6.43;;
12780;SDS011;6454;43.304;24.344;2023-04-08T10:59:49;7.50;;;6.70;;
12780;SDS011;6454;43.304;24.344;2023-04-08T11:02:16;7.93;;;6.50;;
12780;SDS011;6454;43.304;24.344;2023-04-08T11:04:43;8.38;;;7.32;;
12780;SDS011;6454;43.304;24.344;2023-04-08T11:07:12;8.43;;;7.57;;
12780;SDS011;6454;43.304;24.344;2023-04-08T11:09:39;7.72;;;6.53;;
12780;SDS011;6454;43.304;24.344;2023-04-08T11:12:06;6.38;;;5.35;;
12780;SDS011;6454;43.304;24.344;2023-04-08T11:14:34;5.43;;;4.93;;
12780;SDS011;6454;43.304;24.344;2023-04-08T11:17:02;7.18;;;5.53;;
12780;SDS011;6454;43.304;24.344;2023-04-08T11:19:30;6.63;;;5.43;;
12780;SDS011;6454;43.304;24.344;2023-04-08T11:21:57;6.28;;;5.68;;
12780;SDS011;6454;43.304;24.344;2023-04-08T11:24:23;5.85;;;5.25;;
12780;SDS011;6454;43.304;24.344;2023-04-08T11:26:51;5.93;;;5.40;;
12780;SDS011;6454;43.304;24.344;2023-04-08T11:29:19;10.43;;;6.65;;
12780;SDS011;6454;43.304;24.344;2023-04-08T11:31:47;6.95;;;6.18;;
12780;SDS011;6454;43.304;24.344;2023-04-08T11:34:20;8.07;;;6.60;;
12780;SDS011;6454;43.304;24.344;2023-04-08T11:36:48;6.63;;;5.90;;
12780;SDS011;6454;43.304;24.344;2023-04-08T11:39:15;5.85;;;5.25;;
12780;SDS011;6454;43.304;24.344;2023-04-08T11:41:42;9.20;;;8.30;;
12780;SDS011;6454;43.304;24.344;2023-04-08T11:44:09;6.78;;;6.05;;
12780;SDS011;6454;43.304;24.344;2023-04-08T11:46:36;9.18;;;6.40;;
12780;SDS011;6454;43.304;24.344;2023-04-08T11:49:06;8.25;;;6.18;;
12780;SDS011;6454;43.304;24.344;2023-04-08T11:51:36;6.82;;;6.13;;
12780;SDS011;6454;43.304;24.344;2023-04-08T11:54:26;10.98;;;6.93;;
12780;SDS011;6454;43.304;24.344;2023-04-08T11:56:53;9.70;;;6.45;;
12780;SDS011;6454;43.304;24.344;2023-04-08T11:59:22;6.70;;;6.10;;
12780;SDS011;6454;43.304;24.344;2023-04-08T12:01:50;6.60;;;6.00;;
12780;SDS011;6454;43.304;24.344;2023-04-08T12:04:18;8.52;;;6.65;;
12780;SDS011;6454;43.304;24.344;2023-04-08T12:06:45;8.95;;;6.68;;
12780;SDS011;6454;43.304;24.344;2023-04-08T12:09:12;8.45;;;7.15;;
12780;SDS011;6454;43.304;24.344;2023-04-08T12:11:39;10.55;;;7.28;;
12780;SDS011;6454;43.304;24.344;2023-04-08T12:14:06;8.45;;;7.55;;
12780;SDS011;6454;43.304;24.344;2023-04-08T12:16:33;9.00;;;7.28;;
12780;SDS011;6454;43.304;24.344;2023-04-08T12:19:00;11.10;;;7.13;;
12780;SDS011;6454;43.304;24.344;2023-04-08T12:21:29;13.60;;;7.82;;
12780;SDS011;6454;43.304;24.344;2023-04-08T12:23:56;7.15;;;6.30;;
12780;SDS011;6454;43.304;24.344;2023-04-08T12:26:23;8.65;;;6.47;;
12780;SDS011;6454;43.304;24.344;2023-04-08T12:28:51;7.10;;;6.45;;
12780;SDS011;6454;43.304;24.344;2023-04-08T12:31:17;9.65;;;6.80;;
12780;SDS011;6454;43.304;24.344;2023-04-08T12:33:45;8.50;;;6.60;;
12780;SDS011;6454;43.304;24.344;2023-04-08T12:36:12;11.20;;;9.05;;
12780;SDS011;6454;43.304;24.344;2023-04-08T12:38:40;10.73;;;7.47;;
12780;SDS011;6454;43.304;24.344;2023-04-08T12:41:07;7.75;;;6.75;;
12780;SDS011;6454;43.304;24.344;2023-04-08T12:43:34;8.43;;;7.07;;
12780;SDS011;6454;43.304;24.344;2023-04-08T12:46:01;9.65;;;8.77;;
12780;SDS011;6454;43.304;24.344;2023-04-08T12:48:30;9.75;;;7.35;;
12780;SDS011;6454;43.304;24.344;2023-04-08T12:50:57;12.95;;;7.65;;
12780;SDS011;6454;43.304;24.344;2023-04-08T12:53:24;17.10;;;7.72;;
12780;SDS011;6454;43.304;24.344;2023-04-08T12:55:52;8.60;;;7.20;;
12780;SDS011;6454;43.304;24.344;2023-04-08T12:58:21;8.77;;;7.32;;
12780;SDS011;6454;43.304;24.344;2023-04-08T13:00:49;9.55;;;7.40;;
12780;SDS011;6454;43.304;24.344;2023-04-08T13:03:15;7.45;;;6.68;;
12780;SDS011;6454;43.304;24.344;2023-04-08T13:05:42;8.80;;;6.50;;
12780;SDS011;6454;43.304;24.344;2023-04-08T13:08:09;8.20;;;6.78;;
12780;SDS011;6454;43.304;24.344;2023-04-08T13:10:37;10.20;;;9.18;;
12780;SDS011;6454;43.304;24.344;2023-04-08T13:13:05;9.57;;;7.97;;
12780;SDS011;6454;43.304;24.344;2023-04-08T13:15:32;8.65;;;7.55;;
12780;SDS011;6454;43.304;24.344;2023-04-08T13:17:59;9.98;;;7.45;;
12780;SDS011;6454;43.304;24.344;2023-04-08T13:20:26;8.07;;;7.07;;
12780;SDS011;6454;43.304;24.344;2023-04-08T13:22:52;8.45;;;7.03;;
12780;SDS011;6454;43.304;24.344;2023-04-08T13:25:19;8.18;;;7.35;;
12780;SDS011;6454;43.304;24.344;2023-04-08T13:27:46;7.35;;;6.53;;
12780;SDS011;6454;43.304;24.344;2023-04-08T13:30:16;6.53;;;5.88;;
12780;SDS011;6454;43.304;24.344;2023-04-08T13:32:42;8.90;;;6.53;;
12780;SDS011;6454;43.304;24.344;2023-04-08T13:35:09;7.53;;;6.20;;
12780;SDS011;6454;43.304;24.344;2023-04-08T13:37:36;7.30;;;6.60;;
12780;SDS011;6454;43.304;24.344;2023-04-08T13:40:04;8.25;;;6.47;;
12780;SDS011;6454;43.304;24.344;2023-04-08T13:42:32;7.13;;;6.43;;
12780;SDS011;6454;43.304;24.344;2023-04-08T13:44:59;7.68;;;6.63;;
12780;SDS011;6454;43.304;24.344;2023-04-08T13:47:28;9.05;;;6.38;;
12780;SDS011;6454;43.304;24.344;2023-04-08T13:49:55;7.00;;;6.30;;
12780;SDS011;6454;43.304;24.344;2023-04-08T13:52:22;8.23;;;7.30;;
12780;SDS011;6454;43.304;24.344;2023-04-08T13:54:48;6.18;;;5.57;;
12780;SDS011;6454;43.304;24.344;2023-04-08T13:57:15;7.53;;;6.47;;
12780;SDS011;6454;43.304;24.344;2023-04-08T13:59:42;6.93;;;6.32;;
12780;SDS011;6454;43.304;24.344;2023-04-08T14:02:09;10.73;;;5.72;;
12780;SDS011;6454;43.304;24.344;2023-04-08T14:04:38;6.75;;;6.07;;
12780;SDS011;6454;43.304;24.344;2023-04-08T14:07:05;6.60;;;6.00;;
12780;SDS011;6454;43.304;24.344;2023-04-08T14:09:31;8.38;;;5.97;;
12780;SDS011;6454;43.304;24.344;2023-04-08T14:11:59;13.35;;;10.40;;
12780;SDS011;6454;43.304;24.344;2023-04-08T14:14:26;10.20;;;7.80;;
12780;SDS011;6454;43.304;24.344;2023-04-08T14:16:53;12.18;;;10.23;;
12780;SDS011;6454;43.304;24.344;2023-04-08T14:19:20;7.70;;;6.90;;
12780;SDS011;6454;43.304;24.344;2023-04-08T14:21:48;7.32;;;6.60;;
12780;SDS011;6454;43.304;24.344;2023-04-08T14:24:15;8.00;;;6.13;;
12780;SDS011;6454;43.304;24.344;2023-04-08T14:26:44;6.93;;;6.30;;
12780;SDS011;6454;43.304;24.344;2023-04-08T14:29:11;7.10;;;6.30;;
12780;SDS011;6454;43.304;24.344;2023-04-08T14:31:38;8.60;;;6.65;;
12780;SDS011;6454;43.304;24.344;2023-04-08T14:34:05;6.90;;;6.20;;
12780;SDS011;6454;43.304;24.344;2023-04-08T14:36:31;9.13;;;6.53;;
12780;SDS011;6454;43.304;24.344;2023-04-08T14:39:00;6.93;;;6.32;;
12780;SDS011;6454;43.304;24.344;2023-04-08T14:41:27;6.75;;;5.95;;
12780;SDS011;6454;43.304;24.344;2023-04-08T14:43:54;7.50;;;6.65;;